TAFOR
Diposting tanggal: 10 Juni 2019

Pukul : 00 - 12 UTC

Isi :

TAF WAGI 222300Z 2300/2312 00000KT 1000 FG SCT010 BECMG 2300/2302 04006KT 9000 NSW TEMPO 2306/2310 11006KT 4000 RA FEW011CB BKN011=